createdAt,value
2023-05-22T00:01:37.833Z,7.93
2023-05-22T00:04:40.055Z,8.80
2023-05-22T00:07:45.912Z,9.13
2023-05-22T00:10:47.291Z,7.88
2023-05-22T00:13:48.681Z,8.85
2023-05-22T00:16:50.302Z,8.60
2023-05-22T00:19:53.918Z,8.90
2023-05-22T00:22:56.839Z,8.55
2023-05-22T00:25:58.236Z,8.75
2023-05-22T00:28:59.617Z,8.25
2023-05-22T00:32:00.956Z,8.48
2023-05-22T00:35:02.663Z,8.02
2023-05-22T00:38:05.511Z,8.60
2023-05-22T00:41:07.174Z,8.13
2023-05-22T00:44:10.136Z,8.70
2023-05-22T00:47:11.501Z,8.43
2023-05-22T00:50:12.925Z,9.35
2023-05-22T00:53:14.363Z,8.68
2023-05-22T00:56:15.877Z,9.27
2023-05-22T00:59:17.368Z,9.32
2023-05-22T01:02:18.957Z,9.15
2023-05-22T01:05:21.032Z,8.50
2023-05-22T01:08:22.486Z,9.13
2023-05-22T01:11:42.691Z,9.95
2023-05-22T01:14:43.993Z,9.63
2023-05-22T01:17:46.274Z,9.85
2023-05-22T01:20:48.902Z,8.32
2023-05-22T01:24:12.054Z,10.00
2023-05-22T01:27:35.305Z,9.45
2023-05-22T01:30:49.224Z,9.95
2023-05-22T01:33:57.528Z,9.82
2023-05-22T01:36:59.329Z,8.63
2023-05-22T01:40:00.953Z,10.10
2023-05-22T01:43:02.368Z,10.15
2023-05-22T01:46:04.908Z,10.52
2023-05-22T01:49:06.987Z,9.10
2023-05-22T01:52:12.288Z,9.00
2023-05-22T01:55:17.509Z,9.35
2023-05-22T01:58:34.204Z,11.02
2023-05-22T02:01:36.776Z,9.65
2023-05-22T02:04:39.646Z,9.20
2023-05-22T02:07:41.800Z,10.02
2023-05-22T02:10:43.610Z,10.63
2023-05-22T02:13:45.065Z,10.35
2023-05-22T02:16:47.684Z,9.70
2023-05-22T02:19:49.055Z,7.90
2023-05-22T02:22:50.444Z,8.55
2023-05-22T02:25:52.037Z,8.88
2023-05-22T02:28:53.532Z,10.52
2023-05-22T02:31:54.926Z,8.20
2023-05-22T02:34:56.687Z,7.95
2023-05-22T02:37:58.180Z,10.10
2023-05-22T02:40:59.519Z,9.48
2023-05-22T02:44:00.989Z,8.85
2023-05-22T02:47:02.369Z,10.05
2023-05-22T02:50:03.849Z,9.73
2023-05-22T02:53:05.188Z,10.30
2023-05-22T02:56:11.942Z,10.90
2023-05-22T02:59:13.304Z,10.52
2023-05-22T03:02:15.413Z,9.82
2023-05-22T03:05:17.830Z,9.77
2023-05-22T03:08:19.560Z,9.98
2023-05-22T03:11:21.385Z,9.60
2023-05-22T03:14:22.676Z,11.50
2023-05-22T03:17:23.979Z,11.98
2023-05-22T03:20:25.309Z,11.48
2023-05-22T03:23:26.702Z,11.15
2023-05-22T03:26:28.309Z,12.57
2023-05-22T03:29:29.631Z,10.75
2023-05-22T03:32:31.024Z,10.48
2023-05-22T03:35:32.314Z,11.13
2023-05-22T03:38:33.640Z,9.55
2023-05-22T03:41:35.005Z,10.20
2023-05-22T03:44:36.311Z,10.90
2023-05-22T03:47:37.715Z,9.57
2023-05-22T03:50:39.335Z,10.88
2023-05-22T03:53:40.811Z,11.30
2023-05-22T03:56:42.901Z,10.43
2023-05-22T03:59:44.203Z,10.40
2023-05-22T04:02:46.848Z,10.85
2023-05-22T04:05:48.387Z,10.73
2023-05-22T04:08:49.716Z,10.75
2023-05-22T04:11:51.073Z,10.45
2023-05-22T04:14:52.368Z,11.27
2023-05-22T04:17:54.600Z,11.25
2023-05-22T04:20:56.053Z,11.82
2023-05-22T04:23:57.388Z,11.90
2023-05-22T04:27:00.265Z,11.40
2023-05-22T04:30:02.502Z,10.70
2023-05-22T04:33:05.561Z,11.27
2023-05-22T04:36:09.426Z,11.25
2023-05-22T04:39:11.702Z,11.82
2023-05-22T04:42:14.564Z,11.35
2023-05-22T04:45:15.930Z,12.15
2023-05-22T04:48:17.474Z,9.95
2023-05-22T04:51:18.780Z,11.10
2023-05-22T04:54:20.078Z,10.40
2023-05-22T04:57:21.802Z,9.23
2023-05-22T05:00:26.445Z,11.63
2023-05-22T05:03:28.565Z,11.15
2023-05-22T05:06:29.999Z,11.70
2023-05-22T05:09:31.392Z,10.48
2023-05-22T05:12:32.749Z,11.23
2023-05-22T05:15:34.196Z,11.63
2023-05-22T05:18:35.584Z,11.00
2023-05-22T05:21:36.954Z,11.55
2023-05-22T05:24:38.393Z,10.98
2023-05-22T05:27:40.113Z,9.95
2023-05-22T05:30:41.871Z,11.38
2023-05-22T05:33:43.429Z,11.60
2023-05-22T05:36:44.819Z,11.75
2023-05-22T05:39:46.153Z,11.57
2023-05-22T05:42:47.541Z,11.40
2023-05-22T05:45:48.935Z,12.75
2023-05-22T05:48:50.328Z,11.85
2023-05-22T05:51:51.623Z,12.63
2023-05-22T05:54:52.946Z,12.02
2023-05-22T05:57:54.500Z,11.07
2023-05-22T06:00:56.276Z,11.30
2023-05-22T06:03:59.323Z,12.60
2023-05-22T06:07:01.859Z,11.82
2023-05-22T06:10:06.907Z,9.63
2023-05-22T06:13:08.233Z,12.38
2023-05-22T06:16:10.095Z,11.60
2023-05-22T06:19:11.579Z,11.88
2023-05-22T06:22:12.973Z,11.18
2023-05-22T06:25:14.555Z,11.98
2023-05-22T06:28:15.991Z,11.52
2023-05-22T06:31:17.603Z,10.85
2023-05-22T06:34:19.003Z,9.70
2023-05-22T06:37:20.639Z,12.80
2023-05-22T06:40:22.175Z,10.60
2023-05-22T06:43:23.569Z,10.90
2023-05-22T06:46:26.169Z,11.63
2023-05-22T06:49:27.638Z,11.48
2023-05-22T06:52:29.031Z,10.75
2023-05-22T06:55:30.490Z,11.02
2023-05-22T06:58:31.891Z,9.73
2023-05-22T07:01:33.544Z,10.27
2023-05-22T07:04:34.963Z,11.02
2023-05-22T07:07:36.429Z,9.20
2023-05-22T07:10:37.916Z,9.80
2023-05-22T07:13:39.331Z,9.88
2023-05-22T07:16:40.889Z,10.68
2023-05-22T07:19:42.376Z,10.20
2023-05-22T07:22:43.752Z,10.15
2023-05-22T07:25:45.184Z,9.68
2023-05-22T07:28:46.784Z,9.95
2023-05-22T07:31:48.189Z,10.30
2023-05-22T07:34:49.529Z,9.73
2023-05-22T07:37:50.868Z,9.80
2023-05-22T07:40:52.213Z,10.43
2023-05-22T07:43:53.630Z,10.50
2023-05-22T07:46:55.750Z,10.55
2023-05-22T07:49:57.174Z,10.05
2023-05-22T07:52:58.505Z,10.30
2023-05-22T07:55:59.909Z,10.63
2023-05-22T07:59:01.418Z,10.55
2023-05-22T08:02:02.856Z,10.70
2023-05-22T08:05:04.706Z,10.85
2023-05-22T08:08:06.239Z,10.70
2023-05-22T08:11:07.746Z,10.10
2023-05-22T08:14:09.323Z,9.30
2023-05-22T08:17:10.789Z,11.00
2023-05-22T08:20:12.530Z,9.68
2023-05-22T08:23:14.051Z,9.57
2023-05-22T08:26:15.957Z,9.85
2023-05-22T08:29:17.335Z,8.85
2023-05-22T08:32:18.929Z,10.23
2023-05-22T08:35:20.517Z,10.30
2023-05-22T08:38:21.998Z,9.85
2023-05-22T08:41:23.381Z,9.85
2023-05-22T08:44:25.219Z,9.73
2023-05-22T08:47:26.758Z,9.80
2023-05-22T08:50:28.499Z,9.77
2023-05-22T08:53:31.503Z,10.13
2023-05-22T08:56:35.195Z,9.32
2023-05-22T08:59:39.348Z,9.98
2023-05-22T09:02:41.430Z,10.55
2023-05-22T09:05:45.363Z,9.32
2023-05-22T09:08:46.760Z,11.25
2023-05-22T09:11:48.392Z,10.38
2023-05-22T09:14:49.850Z,10.27
2023-05-22T09:17:51.212Z,10.20
2023-05-22T09:20:52.704Z,10.57
2023-05-22T09:23:54.212Z,9.82
2023-05-22T09:26:55.870Z,9.52
2023-05-22T09:29:57.608Z,10.73
2023-05-22T09:32:58.983Z,9.95
2023-05-22T09:36:01.487Z,10.57
2023-05-22T09:39:04.084Z,10.45
2023-05-22T09:42:05.834Z,10.32
2023-05-22T09:45:07.936Z,10.98
2023-05-22T09:48:09.859Z,10.65
2023-05-22T09:51:11.898Z,9.98
2023-05-22T09:54:14.133Z,10.25
2023-05-22T09:57:18.571Z,10.55
2023-05-22T10:00:20.178Z,11.48
2023-05-22T10:03:23.229Z,11.05
2023-05-22T10:06:25.068Z,11.02
2023-05-22T10:09:30.689Z,11.57
2023-05-22T10:12:33.418Z,11.60
2023-05-22T10:15:35.298Z,10.63
2023-05-22T10:18:37.379Z,10.27
2023-05-22T10:21:40.018Z,10.48
2023-05-22T10:24:41.496Z,12.00
2023-05-22T10:27:42.843Z,10.93
2023-05-22T10:30:50.433Z,11.32
2023-05-22T10:33:54.072Z,11.30
2023-05-22T10:37:16.461Z,11.10
2023-05-22T10:40:28.687Z,10.65
2023-05-22T10:43:30.805Z,10.48
2023-05-22T10:46:32.454Z,10.10
2023-05-22T10:49:33.832Z,10.00
2023-05-22T10:52:36.006Z,9.85
2023-05-22T10:55:46.472Z,10.45
2023-05-22T10:58:57.852Z,10.20
2023-05-22T11:02:05.629Z,10.45
2023-05-22T11:05:19.533Z,9.82
2023-05-22T11:08:27.017Z,10.15
2023-05-22T11:11:28.485Z,10.05
2023-05-22T11:14:29.862Z,10.18
2023-05-22T11:17:32.143Z,9.88
2023-05-22T11:20:36.939Z,9.38
2023-05-22T11:23:38.471Z,9.80
2023-05-22T11:26:43.029Z,8.95
2023-05-22T11:29:44.603Z,9.02
2023-05-22T11:32:46.208Z,10.02
2023-05-22T11:35:47.837Z,8.50
2023-05-22T11:38:49.169Z,8.27
2023-05-22T11:41:50.778Z,9.07
2023-05-22T11:44:52.801Z,8.40
2023-05-22T11:47:54.271Z,8.32
2023-05-22T11:50:56.417Z,8.35
2023-05-22T11:53:57.857Z,7.90
2023-05-22T11:56:59.181Z,8.43
2023-05-22T12:00:00.979Z,8.00
2023-05-22T12:03:02.416Z,7.47
2023-05-22T12:06:04.842Z,7.68
2023-05-22T12:09:07.206Z,7.60
2023-05-22T12:12:12.040Z,7.32
2023-05-22T12:15:13.625Z,7.43
2023-05-22T12:18:14.955Z,7.32
2023-05-22T12:21:18.586Z,7.10
2023-05-22T12:24:23.347Z,6.63
2023-05-22T12:27:24.779Z,7.40
2023-05-22T12:30:26.130Z,7.45
2023-05-22T12:33:30.723Z,7.32
2023-05-22T12:36:33.620Z,6.72
2023-05-22T12:39:34.964Z,7.45
2023-05-22T12:42:36.318Z,7.60
2023-05-22T12:45:37.733Z,7.13
2023-05-22T12:48:39.048Z,7.30
2023-05-22T12:51:40.591Z,7.25
2023-05-22T12:54:45.077Z,6.97
2023-05-22T12:57:46.432Z,7.05
2023-05-22T13:00:47.785Z,7.38
2023-05-22T13:03:49.177Z,7.85
2023-05-22T13:06:50.545Z,7.38
2023-05-22T13:09:51.931Z,7.03
2023-05-22T13:12:53.436Z,8.13
2023-05-22T13:15:54.874Z,7.93
2023-05-22T13:18:56.298Z,7.10
2023-05-22T13:21:57.745Z,7.63
2023-05-22T13:24:59.035Z,7.30
2023-05-22T13:28:01.143Z,8.23
2023-05-22T13:31:03.251Z,8.43
2023-05-22T13:34:05.014Z,8.50
2023-05-22T13:37:06.535Z,7.82
2023-05-22T13:40:08.448Z,8.38
2023-05-22T13:43:09.975Z,8.30
2023-05-22T13:46:11.362Z,8.13
2023-05-22T13:49:12.836Z,7.47
2023-05-22T13:52:14.313Z,8.18
2023-05-22T13:55:15.720Z,7.75
2023-05-22T13:58:17.112Z,8.27
2023-05-22T14:01:18.511Z,7.70
2023-05-22T14:04:20.037Z,7.18
2023-05-22T14:07:21.352Z,7.28
2023-05-22T14:10:22.765Z,6.70
2023-05-22T14:13:24.292Z,7.10
2023-05-22T14:16:25.744Z,7.65
2023-05-22T14:19:27.156Z,7.90
2023-05-22T14:22:29.105Z,7.50
2023-05-22T14:25:30.761Z,7.43
2023-05-22T14:28:32.254Z,6.85
2023-05-22T14:31:43.733Z,7.53
2023-05-22T14:34:45.161Z,7.25
2023-05-22T14:37:46.890Z,6.55
2023-05-22T14:40:48.287Z,6.82
2023-05-22T14:43:49.625Z,6.90
2023-05-22T14:46:51.363Z,7.00
2023-05-22T14:49:55.403Z,6.53
2023-05-22T14:52:59.118Z,6.75
2023-05-22T14:56:00.491Z,6.85
2023-05-22T14:59:02.015Z,8.18
2023-05-22T15:02:03.442Z,6.70
2023-05-22T15:05:05.523Z,6.60
2023-05-22T15:08:06.987Z,6.88
2023-05-22T15:11:08.294Z,7.13
2023-05-22T15:14:09.683Z,6.95
2023-05-22T15:17:11.181Z,6.30
2023-05-22T15:20:12.976Z,6.80
2023-05-22T15:23:14.398Z,7.00
2023-05-22T15:26:15.740Z,7.35
2023-05-22T15:29:17.546Z,7.22
2023-05-22T15:32:19.018Z,8.18
2023-05-22T15:35:20.468Z,6.80
2023-05-22T15:38:21.880Z,6.90
2023-05-22T15:41:23.481Z,7.15
2023-05-22T15:44:24.830Z,7.10
2023-05-22T15:47:26.283Z,6.60
2023-05-22T15:50:27.883Z,6.35
2023-05-22T15:53:29.243Z,5.45
2023-05-22T15:56:30.663Z,5.53
2023-05-22T15:59:31.998Z,5.72
2023-05-22T16:02:33.596Z,6.40
2023-05-22T16:05:41.484Z,6.63
2023-05-22T16:08:43.122Z,5.97
2023-05-22T16:11:44.473Z,5.85
2023-05-22T16:14:45.944Z,6.45
2023-05-22T16:17:47.391Z,6.75
2023-05-22T16:20:48.823Z,5.57
2023-05-22T16:23:50.296Z,6.25
2023-05-22T16:26:51.604Z,6.55
2023-05-22T16:29:52.946Z,6.75
2023-05-22T16:32:54.290Z,7.30
2023-05-22T16:35:55.691Z,6.70
2023-05-22T16:38:57.063Z,7.57
2023-05-22T16:41:58.411Z,6.82
2023-05-22T16:44:59.786Z,7.70
2023-05-22T16:48:01.122Z,8.02
2023-05-22T16:51:02.768Z,8.68
2023-05-22T16:54:04.270Z,9.68
2023-05-22T16:57:06.208Z,8.38
2023-05-22T17:00:10.728Z,9.57
2023-05-22T17:03:13.022Z,9.70
2023-05-22T17:06:14.771Z,10.48
2023-05-22T17:09:16.111Z,10.95
2023-05-22T17:12:17.489Z,11.00
2023-05-22T17:15:18.955Z,11.40
2023-05-22T17:18:20.847Z,10.43
2023-05-22T17:21:22.747Z,11.30
2023-05-22T17:24:24.639Z,11.55
2023-05-22T17:27:35.390Z,10.07
2023-05-22T17:30:37.986Z,10.80
2023-05-22T17:33:39.295Z,9.70
2023-05-22T17:36:42.627Z,9.75
2023-05-22T17:39:46.196Z,10.45
2023-05-22T17:42:47.520Z,11.10
2023-05-22T17:45:52.809Z,10.57
2023-05-22T17:48:55.159Z,9.50
2023-05-22T17:51:56.504Z,9.27
2023-05-22T17:54:57.803Z,8.57
2023-05-22T17:57:59.697Z,9.43
2023-05-22T18:01:01.139Z,8.93
2023-05-22T18:04:04.702Z,9.80
2023-05-22T18:07:06.147Z,11.30
2023-05-22T18:10:07.691Z,10.55
2023-05-22T18:13:09.066Z,9.32
2023-05-22T18:16:10.497Z,8.45
2023-05-22T18:19:11.869Z,7.88
2023-05-22T18:22:13.181Z,10.63
2023-05-22T18:25:14.556Z,6.90
2023-05-22T18:28:16.030Z,7.50
2023-05-22T18:31:17.596Z,6.85
2023-05-22T18:34:19.072Z,6.50
2023-05-22T18:37:20.410Z,7.72
2023-05-22T18:40:21.805Z,6.75
2023-05-22T18:43:27.754Z,7.43
2023-05-22T18:46:29.113Z,7.57
2023-05-22T18:49:30.487Z,8.77
2023-05-22T18:52:31.815Z,8.32
2023-05-22T18:55:34.240Z,7.90
2023-05-22T18:58:37.631Z,6.75
2023-05-22T19:01:39.183Z,6.07
2023-05-22T19:04:40.692Z,6.20
2023-05-22T19:07:42.115Z,5.20
2023-05-22T19:10:43.515Z,6.18
2023-05-22T19:13:44.902Z,6.20
2023-05-22T19:16:46.360Z,5.80
2023-05-22T19:19:47.856Z,6.18
2023-05-22T19:22:50.889Z,6.25
2023-05-22T19:25:52.340Z,5.97
2023-05-22T19:28:59.134Z,6.47
2023-05-22T19:32:00.477Z,6.20
2023-05-22T19:35:01.816Z,6.20
2023-05-22T19:38:03.149Z,6.68
2023-05-22T19:41:04.532Z,6.70
2023-05-22T19:44:06.573Z,6.28
2023-05-22T19:47:07.974Z,6.70
2023-05-22T19:50:09.611Z,6.28
2023-05-22T19:53:10.998Z,6.82
2023-05-22T19:56:12.518Z,6.82
2023-05-22T19:59:13.880Z,5.50
2023-05-22T20:02:15.364Z,6.63
2023-05-22T20:05:17.001Z,6.93
2023-05-22T20:08:18.844Z,6.22
2023-05-22T20:11:20.267Z,5.53
2023-05-22T20:14:21.617Z,6.68
2023-05-22T20:17:23.017Z,7.82
2023-05-22T20:20:24.889Z,6.35
2023-05-22T20:23:26.347Z,7.13
2023-05-22T20:26:27.730Z,5.50
2023-05-22T20:29:29.086Z,7.45
2023-05-22T20:32:30.708Z,6.75
2023-05-22T20:35:32.235Z,7.88
2023-05-22T20:38:35.060Z,6.95
2023-05-22T20:41:36.374Z,7.90
2023-05-22T20:44:38.146Z,7.38
2023-05-22T20:47:40.376Z,7.82
2023-05-22T20:50:42.311Z,7.25
2023-05-22T20:53:43.774Z,7.68
2023-05-22T20:56:45.155Z,8.07
2023-05-22T20:59:46.544Z,8.13
2023-05-22T21:02:48.067Z,6.82
2023-05-22T21:05:49.536Z,8.60
2023-05-22T21:08:53.278Z,8.68
2023-05-22T21:11:55.564Z,8.65
2023-05-22T21:14:56.984Z,9.18
2023-05-22T21:17:58.475Z,9.90
2023-05-22T21:20:59.999Z,9.80
2023-05-22T21:24:01.337Z,11.30
2023-05-22T21:27:02.717Z,11.88
2023-05-22T21:30:04.181Z,11.23
2023-05-22T21:33:05.809Z,11.30
2023-05-22T21:36:07.357Z,10.95
2023-05-22T21:39:08.704Z,11.27
2023-05-22T21:42:10.028Z,12.73
2023-05-22T21:45:12.966Z,12.40
2023-05-22T21:48:14.362Z,11.43
2023-05-22T21:51:15.832Z,12.32
2023-05-22T21:54:17.230Z,12.52
2023-05-22T21:57:18.578Z,13.55
2023-05-22T22:00:20.005Z,11.48
2023-05-22T22:03:21.462Z,13.10
2023-05-22T22:06:22.844Z,14.77
2023-05-22T22:09:24.221Z,14.10
2023-05-22T22:12:25.819Z,14.00
2023-05-22T22:15:27.157Z,13.70
2023-05-22T22:18:32.315Z,13.98
2023-05-22T22:21:34.183Z,14.88
2023-05-22T22:24:35.861Z,15.15
2023-05-22T22:27:37.254Z,15.43
2023-05-22T22:30:38.990Z,15.20
2023-05-22T22:33:40.594Z,16.90
2023-05-22T22:36:41.996Z,17.52
2023-05-22T22:39:43.339Z,17.05
2023-05-22T22:42:44.728Z,17.50
2023-05-22T22:45:46.379Z,17.92
2023-05-22T22:48:47.802Z,17.65
2023-05-22T22:51:52.502Z,16.20
2023-05-22T22:54:53.836Z,13.93
2023-05-22T22:57:55.257Z,16.42
2023-05-22T23:00:56.558Z,17.67
2023-05-22T23:03:57.969Z,18.77
2023-05-22T23:06:59.519Z,19.02
2023-05-22T23:10:00.966Z,19.08
2023-05-22T23:13:02.337Z,19.45
2023-05-22T23:16:03.991Z,20.15
2023-05-22T23:19:05.789Z,21.58
2023-05-22T23:22:07.184Z,22.17
2023-05-22T23:25:08.767Z,21.48
2023-05-22T23:28:10.124Z,20.80
2023-05-22T23:31:14.102Z,21.50
2023-05-22T23:34:15.522Z,22.08
2023-05-22T23:37:16.831Z,20.55
2023-05-22T23:40:18.145Z,24.33
2023-05-22T23:43:20.785Z,22.25
2023-05-22T23:46:24.373Z,24.42
2023-05-22T23:49:26.407Z,25.70
2023-05-22T23:52:27.754Z,25.17
2023-05-22T23:55:29.060Z,22.40
2023-05-22T23:58:31.901Z,25.45
